createdAt,value
2019-03-19T00:01:28.841Z,3.40
2019-03-19T00:03:58.320Z,5.93
2019-03-19T00:06:27.666Z,6.80
2019-03-19T00:08:57.715Z,7.33
2019-03-19T00:11:27.834Z,5.50
2019-03-19T00:13:57.047Z,4.90
2019-03-19T00:16:26.009Z,7.97
2019-03-19T00:18:55.557Z,7.20
2019-03-19T00:21:24.520Z,8.50
2019-03-19T00:23:53.720Z,9.57
2019-03-19T00:26:22.904Z,5.23
2019-03-19T00:28:51.843Z,14.13
2019-03-19T00:31:21.097Z,11.30
2019-03-19T00:33:50.701Z,10.80
2019-03-19T00:36:19.591Z,8.70
2019-03-19T00:38:48.844Z,4.57
2019-03-19T00:41:18.051Z,7.03
2019-03-19T00:43:47.344Z,7.50
2019-03-19T00:46:16.256Z,7.90
2019-03-19T00:48:45.736Z,10.03
2019-03-19T00:51:14.756Z,7.00
2019-03-19T00:53:43.929Z,9.67
2019-03-19T00:56:13.436Z,6.63
2019-03-19T00:58:42.634Z,11.70
2019-03-19T01:01:11.902Z,6.07
2019-03-19T01:03:41.068Z,5.20
2019-03-19T01:06:10.334Z,6.17
2019-03-19T01:08:39.588Z,5.27
2019-03-19T01:11:08.950Z,5.37
2019-03-19T01:13:37.864Z,9.80
2019-03-19T01:16:06.807Z,8.50
2019-03-19T01:18:35.856Z,7.80
2019-03-19T01:21:05.109Z,6.40
2019-03-19T01:23:34.884Z,8.10
2019-03-19T01:26:04.693Z,7.27
2019-03-19T01:28:33.614Z,11.73
2019-03-19T01:31:02.939Z,7.80
2019-03-19T01:33:31.863Z,9.93
2019-03-19T01:36:01.145Z,9.33
2019-03-19T01:38:30.709Z,7.97
2019-03-19T01:41:00.859Z,6.23
2019-03-19T01:43:30.395Z,8.87
2019-03-19T01:45:59.606Z,7.63
2019-03-19T01:48:28.805Z,8.70
2019-03-19T01:50:58.445Z,7.37
2019-03-19T01:53:27.355Z,7.33
2019-03-19T01:56:04.831Z,5.97
2019-03-19T01:58:27.777Z,6.00
2019-03-19T02:00:56.972Z,7.43
2019-03-19T02:03:26.152Z,7.60
2019-03-19T02:05:55.326Z,7.50
2019-03-19T02:08:24.820Z,8.37
2019-03-19T02:10:53.991Z,10.93
2019-03-19T02:13:22.934Z,5.83
2019-03-19T02:15:52.134Z,12.50
2019-03-19T02:18:21.392Z,9.30
2019-03-19T02:20:50.604Z,10.23
2019-03-19T02:23:20.208Z,6.93
2019-03-19T02:25:49.138Z,6.40
2019-03-19T02:28:18.300Z,6.10
2019-03-19T02:30:47.225Z,18.40
2019-03-19T02:33:16.766Z,6.10
2019-03-19T02:35:46.005Z,7.73
2019-03-19T02:38:14.918Z,6.80
2019-03-19T02:40:44.216Z,7.77
2019-03-19T02:43:13.773Z,12.87
2019-03-19T02:45:42.730Z,8.57
2019-03-19T02:48:11.623Z,6.57
2019-03-19T02:50:40.538Z,6.10
2019-03-19T02:53:09.828Z,6.67
2019-03-19T02:55:38.997Z,5.27
2019-03-19T02:58:07.906Z,9.33
2019-03-19T03:00:37.441Z,6.90
2019-03-19T03:03:06.539Z,12.97
2019-03-19T03:05:35.605Z,9.60
2019-03-19T03:08:04.772Z,7.17
2019-03-19T03:10:33.930Z,9.13
2019-03-19T03:13:03.479Z,7.23
2019-03-19T03:15:32.433Z,9.07
2019-03-19T03:18:02.168Z,9.57
2019-03-19T03:20:31.085Z,9.50
2019-03-19T03:23:00.857Z,13.30
2019-03-19T03:25:29.813Z,12.10
2019-03-19T03:27:58.838Z,9.87
2019-03-19T03:30:28.007Z,8.97
2019-03-19T03:32:57.467Z,8.93
2019-03-19T03:35:26.359Z,8.37
2019-03-19T03:37:55.911Z,5.33
2019-03-19T03:40:25.498Z,9.23
2019-03-19T03:42:54.470Z,8.17
2019-03-19T03:45:23.684Z,8.03
2019-03-19T03:47:52.673Z,11.53
2019-03-19T03:50:22.352Z,9.27
2019-03-19T03:52:51.622Z,6.33
2019-03-19T03:55:20.740Z,9.00
2019-03-19T03:57:50.298Z,5.70
2019-03-19T04:00:20.183Z,8.20
2019-03-19T04:02:49.162Z,8.70
2019-03-19T04:05:18.473Z,10.73
2019-03-19T04:07:47.737Z,10.37
2019-03-19T04:10:17.130Z,15.07
2019-03-19T04:12:46.436Z,8.00
2019-03-19T04:15:15.463Z,7.57
2019-03-19T04:17:44.685Z,7.57
2019-03-19T04:20:13.849Z,7.73
2019-03-19T04:22:43.431Z,11.33
2019-03-19T04:25:13.450Z,11.93
2019-03-19T04:27:42.799Z,11.30
2019-03-19T04:30:12.290Z,7.07
2019-03-19T04:32:41.583Z,9.97
2019-03-19T04:35:10.506Z,8.53
2019-03-19T04:37:39.463Z,11.30
2019-03-19T04:40:08.993Z,7.60
2019-03-19T04:42:38.166Z,11.83
2019-03-19T04:45:07.694Z,12.80
2019-03-19T04:47:37.189Z,10.70
2019-03-19T04:50:07.032Z,8.97
2019-03-19T04:52:36.238Z,9.87
2019-03-19T04:55:05.994Z,16.70
2019-03-19T04:57:35.195Z,9.80
2019-03-19T05:00:04.548Z,13.47
2019-03-19T05:02:33.773Z,13.30
2019-03-19T05:05:02.715Z,14.03
2019-03-19T05:07:31.890Z,15.63
2019-03-19T05:10:01.352Z,13.60
2019-03-19T05:12:30.258Z,12.50
2019-03-19T05:14:59.615Z,16.63
2019-03-19T05:17:28.536Z,12.33
2019-03-19T05:19:57.980Z,11.93
2019-03-19T05:22:27.177Z,11.57
2019-03-19T05:24:56.162Z,13.37
2019-03-19T05:27:25.429Z,15.03
2019-03-19T05:29:54.380Z,16.20
2019-03-19T05:32:23.167Z,13.43
2019-03-19T05:34:52.453Z,19.70
2019-03-19T05:37:21.872Z,17.70
2019-03-19T05:39:50.830Z,17.73
2019-03-19T05:42:20.132Z,14.60
2019-03-19T05:44:49.381Z,22.10
2019-03-19T05:47:20.171Z,17.30
2019-03-19T05:49:49.698Z,21.53
2019-03-19T05:52:19.023Z,20.00
2019-03-19T05:54:48.047Z,18.37
2019-03-19T05:57:17.103Z,17.63
2019-03-19T05:59:48.316Z,17.37
2019-03-19T06:02:17.245Z,16.73
2019-03-19T06:04:46.163Z,19.23
2019-03-19T06:07:15.775Z,18.20
2019-03-19T06:09:45.431Z,14.37
2019-03-19T06:12:14.718Z,16.27
2019-03-19T06:14:44.327Z,21.50
2019-03-19T06:17:13.564Z,17.63
2019-03-19T06:19:43.677Z,19.30
2019-03-19T06:22:13.102Z,13.57
2019-03-19T06:24:42.624Z,19.10
2019-03-19T06:27:11.897Z,17.60
2019-03-19T06:29:41.476Z,18.93
2019-03-19T06:32:10.861Z,15.40
2019-03-19T06:34:40.298Z,19.53
2019-03-19T06:37:09.528Z,24.83
2019-03-19T06:39:39.706Z,27.10
2019-03-19T06:42:09.890Z,23.53
2019-03-19T06:44:39.493Z,18.00
2019-03-19T06:47:09.100Z,18.70
2019-03-19T06:49:38.600Z,30.90
2019-03-19T06:52:08.059Z,17.07
2019-03-19T06:54:37.725Z,19.37
2019-03-19T06:57:06.986Z,16.03
2019-03-19T06:59:36.199Z,14.17
2019-03-19T07:02:05.659Z,16.87
2019-03-19T07:04:34.781Z,19.03
2019-03-19T07:07:04.962Z,18.23
2019-03-19T07:09:34.497Z,15.33
2019-03-19T07:12:03.689Z,18.80
2019-03-19T07:14:33.199Z,27.97
2019-03-19T07:17:03.047Z,15.50
2019-03-19T07:19:32.718Z,15.87
2019-03-19T07:22:02.145Z,22.57
2019-03-19T07:24:31.372Z,13.80
2019-03-19T07:27:01.114Z,20.17
2019-03-19T07:29:30.763Z,28.37
2019-03-19T07:32:00.065Z,26.80
2019-03-19T07:34:29.775Z,20.90
2019-03-19T07:36:59.605Z,13.73
2019-03-19T07:39:29.946Z,28.40
2019-03-19T07:41:59.906Z,18.23
2019-03-19T07:44:29.126Z,16.00
2019-03-19T07:46:59.228Z,14.20
2019-03-19T07:49:28.938Z,19.80
2019-03-19T07:51:58.926Z,14.63
2019-03-19T07:54:31.257Z,22.53
2019-03-19T07:57:00.694Z,20.10
2019-03-19T20:23:47.242Z,15.13
2019-03-19T20:26:16.613Z,14.93
2019-03-19T20:28:48.881Z,19.93
2019-03-19T20:31:18.302Z,24.40
2019-03-19T20:33:47.669Z,24.23
2019-03-19T20:36:16.868Z,17.60
2019-03-19T20:38:45.881Z,22.93
2019-03-19T20:41:15.828Z,20.73
2019-03-19T20:43:45.107Z,17.30
2019-03-19T20:46:14.682Z,13.63
2019-03-19T20:48:43.715Z,15.80
2019-03-19T20:51:12.909Z,15.53
2019-03-19T20:53:42.361Z,17.23
2019-03-19T20:56:11.471Z,20.20
2019-03-19T20:58:43.742Z,7.80
2019-03-19T21:01:11.818Z,17.67
2019-03-19T21:03:41.556Z,8.50
2019-03-19T21:06:11.182Z,10.03
2019-03-19T21:08:40.258Z,19.17
2019-03-19T21:11:09.628Z,10.60
2019-03-19T21:13:39.305Z,20.57
2019-03-19T21:16:08.523Z,13.83
2019-03-19T21:18:37.412Z,22.07
2019-03-19T21:21:06.892Z,22.70
2019-03-19T21:23:36.097Z,12.30
2019-03-19T21:26:05.562Z,20.23
2019-03-19T21:28:35.205Z,12.10
2019-03-19T21:31:04.390Z,13.10
2019-03-19T21:33:33.736Z,23.83
2019-03-19T21:36:03.035Z,9.13
2019-03-19T21:38:32.406Z,12.60
2019-03-19T21:41:01.469Z,21.70
2019-03-19T21:43:30.413Z,9.17
2019-03-19T21:45:59.709Z,15.33
2019-03-19T21:48:28.685Z,20.03
2019-03-19T21:50:57.774Z,20.70
2019-03-19T21:53:27.308Z,19.93
2019-03-19T21:55:56.361Z,15.13
2019-03-19T21:58:25.663Z,21.13
2019-03-19T22:00:55.125Z,12.07
2019-03-19T22:03:24.784Z,28.37
2019-03-19T22:06:11.813Z,22.40
2019-03-19T22:08:58.076Z,10.23
2019-03-19T22:14:53.628Z,20.50
2019-03-19T22:17:37.883Z,12.53
2019-03-19T22:20:08.693Z,28.93
2019-03-19T22:22:46.912Z,17.63
2019-03-19T22:25:16.199Z,19.00
2019-03-19T22:27:46.034Z,11.93
2019-03-19T22:30:15.494Z,15.10
2019-03-19T22:32:46.894Z,33.93
2019-03-19T22:35:16.158Z,23.23
2019-03-19T22:37:45.150Z,18.53
2019-03-19T22:40:14.171Z,19.23
2019-03-19T22:42:43.698Z,14.83
2019-03-19T22:45:13.582Z,19.83
2019-03-19T22:47:42.589Z,14.83
2019-03-19T22:50:14.311Z,20.33
2019-03-19T22:52:43.980Z,33.07
2019-03-19T22:55:13.666Z,36.30
2019-03-19T22:57:42.960Z,15.23
2019-03-19T23:00:15.275Z,18.80
2019-03-19T23:02:44.403Z,27.90
2019-03-19T23:05:14.862Z,14.00
2019-03-19T23:07:43.840Z,18.50
2019-03-19T23:10:12.794Z,29.77
2019-03-19T23:12:42.134Z,18.20
2019-03-19T23:15:11.961Z,28.07
2019-03-19T23:17:43.181Z,18.70
2019-03-19T23:20:12.926Z,15.43
2019-03-19T23:22:43.878Z,18.23
2019-03-19T23:25:13.045Z,25.30
2019-03-19T23:27:42.362Z,16.13
2019-03-19T23:30:12.056Z,19.93
2019-03-19T23:32:41.763Z,21.37
2019-03-19T23:35:11.682Z,16.50
2019-03-19T23:37:40.672Z,19.10
2019-03-19T23:40:10.085Z,23.83
2019-03-19T23:42:39.049Z,21.00
2019-03-19T23:45:08.844Z,18.53
2019-03-19T23:47:37.778Z,12.93
2019-03-19T23:50:09.016Z,17.20
2019-03-19T23:52:38.018Z,16.97
2019-03-19T23:55:07.920Z,22.30
2019-03-19T23:57:36.900Z,22.63
